sensor_id;sensor_type;location;lat;lon;timestamp;P1;durP1;ratioP1;P2;durP2;ratioP2
30553;SDS011;17335;50.720;7.452;2023-05-10T00:00:30;2.85;;;1.15;;
30553;SDS011;17335;50.720;7.452;2023-05-10T00:02:57;2.50;;;1.67;;
30553;SDS011;17335;50.720;7.452;2023-05-10T00:05:23;3.67;;;1.48;;
30553;SDS011;17335;50.720;7.452;2023-05-10T00:07:50;3.58;;;1.73;;
30553;SDS011;17335;50.720;7.452;2023-05-10T00:10:17;4.38;;;2.20;;
30553;SDS011;17335;50.720;7.452;2023-05-10T00:12:44;4.07;;;2.15;;
30553;SDS011;17335;50.720;7.452;2023-05-10T00:15:10;4.47;;;2.00;;
30553;SDS011;17335;50.720;7.452;2023-05-10T00:17:37;3.88;;;2.10;;
30553;SDS011;17335;50.720;7.452;2023-05-10T00:20:03;4.47;;;2.47;;
30553;SDS011;17335;50.720;7.452;2023-05-10T00:22:31;3.63;;;2.10;;
30553;SDS011;17335;50.720;7.452;2023-05-10T00:24:58;3.90;;;2.20;;
30553;SDS011;17335;50.720;7.452;2023-05-10T00:27:25;4.47;;;2.50;;
30553;SDS011;17335;50.720;7.452;2023-05-10T00:29:51;4.65;;;2.63;;
30553;SDS011;17335;50.720;7.452;2023-05-10T00:32:18;4.93;;;2.70;;
30553;SDS011;17335;50.720;7.452;2023-05-10T00:34:44;4.53;;;2.60;;
30553;SDS011;17335;50.720;7.452;2023-05-10T00:37:11;4.40;;;2.65;;
30553;SDS011;17335;50.720;7.452;2023-05-10T00:39:38;4.57;;;2.67;;
30553;SDS011;17335;50.720;7.452;2023-05-10T00:42:04;4.95;;;3.03;;
30553;SDS011;17335;50.720;7.452;2023-05-10T00:44:31;4.60;;;2.30;;
30553;SDS011;17335;50.720;7.452;2023-05-10T00:46:58;4.15;;;2.20;;
30553;SDS011;17335;50.720;7.452;2023-05-10T00:49:25;6.00;;;2.50;;
30553;SDS011;17335;50.720;7.452;2023-05-10T00:51:52;4.22;;;2.45;;
30553;SDS011;17335;50.720;7.452;2023-05-10T00:54:18;4.78;;;2.25;;
30553;SDS011;17335;50.720;7.452;2023-05-10T00:56:45;4.75;;;2.83;;
30553;SDS011;17335;50.720;7.452;2023-05-10T00:59:17;6.10;;;2.92;;
30553;SDS011;17335;50.720;7.452;2023-05-10T01:01:45;4.63;;;2.78;;
30553;SDS011;17335;50.720;7.452;2023-05-10T01:04:12;4.32;;;2.60;;
30553;SDS011;17335;50.720;7.452;2023-05-10T01:06:40;4.53;;;2.53;;
30553;SDS011;17335;50.720;7.452;2023-05-10T01:09:07;9.95;;;2.70;;
30553;SDS011;17335;50.720;7.452;2023-05-10T01:11:34;5.68;;;2.30;;
30553;SDS011;17335;50.720;7.452;2023-05-10T01:14:02;4.00;;;2.15;;
30553;SDS011;17335;50.720;7.452;2023-05-10T01:16:29;8.05;;;2.95;;
30553;SDS011;17335;50.720;7.452;2023-05-10T01:19:04;5.95;;;3.55;;
30553;SDS011;17335;50.720;7.452;2023-05-10T01:21:53;6.47;;;3.13;;
30553;SDS011;17335;50.720;7.452;2023-05-10T01:38:28;5.60;;;3.22;;
30553;SDS011;17335;50.720;7.452;2023-05-10T01:41:08;5.38;;;2.97;;
30553;SDS011;17335;50.720;7.452;2023-05-10T01:46:34;6.43;;;3.33;;
30553;SDS011;17335;50.720;7.452;2023-05-10T01:49:09;6.75;;;3.58;;
30553;SDS011;17335;50.720;7.452;2023-05-10T01:51:50;5.80;;;3.20;;
30553;SDS011;17335;50.720;7.452;2023-05-10T01:54:21;8.90;;;2.83;;
30553;SDS011;17335;50.720;7.452;2023-05-10T01:56:52;4.95;;;2.55;;
30553;SDS011;17335;50.720;7.452;2023-05-10T02:01:56;5.15;;;2.58;;
30553;SDS011;17335;50.720;7.452;2023-05-10T02:04:26;6.40;;;3.22;;
30553;SDS011;17335;50.720;7.452;2023-05-10T02:06:54;5.10;;;2.72;;
30553;SDS011;17335;50.720;7.452;2023-05-10T02:09:22;5.53;;;3.22;;
30553;SDS011;17335;50.720;7.452;2023-05-10T02:11:51;11.38;;;2.92;;
30553;SDS011;17335;50.720;7.452;2023-05-10T02:14:19;5.15;;;2.35;;
30553;SDS011;17335;50.720;7.452;2023-05-10T02:16:47;5.45;;;2.80;;
30553;SDS011;17335;50.720;7.452;2023-05-10T02:19:16;5.20;;;2.50;;
30553;SDS011;17335;50.720;7.452;2023-05-10T02:21:46;4.25;;;2.20;;
30553;SDS011;17335;50.720;7.452;2023-05-10T02:24:14;3.83;;;2.20;;
30553;SDS011;17335;50.720;7.452;2023-05-10T02:26:42;5.65;;;2.42;;
30553;SDS011;17335;50.720;7.452;2023-05-10T02:29:10;2.92;;;1.52;;
30553;SDS011;17335;50.720;7.452;2023-05-10T02:31:38;4.50;;;1.85;;
30553;SDS011;17335;50.720;7.452;2023-05-10T02:34:05;5.07;;;1.85;;
30553;SDS011;17335;50.720;7.452;2023-05-10T02:36:34;3.88;;;1.60;;
30553;SDS011;17335;50.720;7.452;2023-05-10T02:39:02;3.53;;;2.00;;
30553;SDS011;17335;50.720;7.452;2023-05-10T02:41:31;4.13;;;2.17;;
30553;SDS011;17335;50.720;7.452;2023-05-10T02:43:59;3.70;;;2.13;;
30553;SDS011;17335;50.720;7.452;2023-05-10T02:46:29;3.85;;;2.25;;
30553;SDS011;17335;50.720;7.452;2023-05-10T02:48:56;4.28;;;2.47;;
30553;SDS011;17335;50.720;7.452;2023-05-10T02:51:24;4.00;;;2.38;;
30553;SDS011;17335;50.720;7.452;2023-05-10T02:53:54;2.83;;;1.65;;
30553;SDS011;17335;50.720;7.452;2023-05-10T02:56:24;4.15;;;2.28;;
30553;SDS011;17335;50.720;7.452;2023-05-10T02:58:55;3.95;;;2.13;;
30553;SDS011;17335;50.720;7.452;2023-05-10T03:01:21;2.92;;;1.60;;
30553;SDS011;17335;50.720;7.452;2023-05-10T03:03:48;4.00;;;1.98;;
30553;SDS011;17335;50.720;7.452;2023-05-10T03:06:15;3.08;;;1.77;;
30553;SDS011;17335;50.720;7.452;2023-05-10T03:08:43;2.75;;;1.70;;
30553;SDS011;17335;50.720;7.452;2023-05-10T03:14:16;3.30;;;1.20;;
30553;SDS011;17335;50.720;7.452;2023-05-10T03:17:11;2.35;;;1.35;;
30553;SDS011;17335;50.720;7.452;2023-05-10T03:22:34;4.18;;;1.65;;
30553;SDS011;17335;50.720;7.452;2023-05-10T03:25:06;3.08;;;1.65;;
30553;SDS011;17335;50.720;7.452;2023-05-10T03:27:35;2.85;;;1.52;;
30553;SDS011;17335;50.720;7.452;2023-05-10T03:30:05;3.80;;;1.38;;
30553;SDS011;17335;50.720;7.452;2023-05-10T03:32:35;4.68;;;2.30;;
30553;SDS011;17335;50.720;7.452;2023-05-10T03:35:08;3.67;;;1.85;;
30553;SDS011;17335;50.720;7.452;2023-05-10T03:37:36;4.78;;;2.20;;
30553;SDS011;17335;50.720;7.452;2023-05-10T03:40:03;3.83;;;2.10;;
30553;SDS011;17335;50.720;7.452;2023-05-10T03:42:30;4.35;;;2.13;;
30553;SDS011;17335;50.720;7.452;2023-05-10T03:44:57;4.13;;;2.05;;
30553;SDS011;17335;50.720;7.452;2023-05-10T03:47:23;4.38;;;2.20;;
30553;SDS011;17335;50.720;7.452;2023-05-10T03:49:50;4.90;;;2.15;;
30553;SDS011;17335;50.720;7.452;2023-05-10T03:52:17;4.88;;;2.33;;
30553;SDS011;17335;50.720;7.452;2023-05-10T03:54:44;4.30;;;2.60;;
30553;SDS011;17335;50.720;7.452;2023-05-10T03:57:11;4.93;;;2.70;;
30553;SDS011;17335;50.720;7.452;2023-05-10T03:59:37;5.15;;;2.72;;
30553;SDS011;17335;50.720;7.452;2023-05-10T04:02:03;6.18;;;3.15;;
30553;SDS011;17335;50.720;7.452;2023-05-10T04:04:30;7.90;;;3.17;;
30553;SDS011;17335;50.720;7.452;2023-05-10T04:06:57;7.13;;;3.03;;
30553;SDS011;17335;50.720;7.452;2023-05-10T04:09:23;6.03;;;3.05;;
30553;SDS011;17335;50.720;7.452;2023-05-10T04:11:50;6.43;;;3.08;;
30553;SDS011;17335;50.720;7.452;2023-05-10T04:14:16;7.70;;;3.88;;
30553;SDS011;17335;50.720;7.452;2023-05-10T04:16:43;5.43;;;3.30;;
30553;SDS011;17335;50.720;7.452;2023-05-10T04:19:09;5.60;;;3.05;;
30553;SDS011;17335;50.720;7.452;2023-05-10T04:21:38;7.82;;;3.50;;
30553;SDS011;17335;50.720;7.452;2023-05-10T04:24:05;7.65;;;3.95;;
30553;SDS011;17335;50.720;7.452;2023-05-10T04:26:33;6.15;;;3.38;;
30553;SDS011;17335;50.720;7.452;2023-05-10T04:28:59;10.82;;;4.07;;
30553;SDS011;17335;50.720;7.452;2023-05-10T04:31:26;7.60;;;3.85;;
30553;SDS011;17335;50.720;7.452;2023-05-10T04:33:54;8.32;;;4.18;;
30553;SDS011;17335;50.720;7.452;2023-05-10T04:36:21;8.43;;;3.72;;
30553;SDS011;17335;50.720;7.452;2023-05-10T04:38:47;10.02;;;4.80;;
30553;SDS011;17335;50.720;7.452;2023-05-10T04:41:14;13.88;;;4.85;;
30553;SDS011;17335;50.720;7.452;2023-05-10T04:43:40;12.32;;;5.70;;
30553;SDS011;17335;50.720;7.452;2023-05-10T04:46:07;12.60;;;5.45;;
30553;SDS011;17335;50.720;7.452;2023-05-10T04:48:33;10.85;;;5.28;;
30553;SDS011;17335;50.720;7.452;2023-05-10T04:51:00;13.77;;;6.07;;
30553;SDS011;17335;50.720;7.452;2023-05-10T04:53:28;11.43;;;6.07;;
30553;SDS011;17335;50.720;7.452;2023-05-10T04:55:54;12.35;;;6.03;;
30553;SDS011;17335;50.720;7.452;2023-05-10T04:58:21;17.60;;;7.30;;
30553;SDS011;17335;50.720;7.452;2023-05-10T05:00:47;16.40;;;7.55;;
30553;SDS011;17335;50.720;7.452;2023-05-10T05:03:14;14.10;;;6.70;;
30553;SDS011;17335;50.720;7.452;2023-05-10T05:05:41;15.35;;;7.07;;
30553;SDS011;17335;50.720;7.452;2023-05-10T05:08:08;15.88;;;7.47;;
30553;SDS011;17335;50.720;7.452;2023-05-10T05:10:35;15.15;;;7.20;;
30553;SDS011;17335;50.720;7.452;2023-05-10T05:13:01;14.10;;;7.15;;
30553;SDS011;17335;50.720;7.452;2023-05-10T05:15:28;17.85;;;8.75;;
30553;SDS011;17335;50.720;7.452;2023-05-10T05:17:54;17.20;;;8.43;;
30553;SDS011;17335;50.720;7.452;2023-05-10T05:20:21;15.32;;;8.43;;
30553;SDS011;17335;50.720;7.452;2023-05-10T05:22:48;16.05;;;7.70;;
30553;SDS011;17335;50.720;7.452;2023-05-10T05:25:15;15.52;;;7.95;;
30553;SDS011;17335;50.720;7.452;2023-05-10T05:27:42;16.25;;;7.05;;
30553;SDS011;17335;50.720;7.452;2023-05-10T05:30:08;15.38;;;7.57;;
30553;SDS011;17335;50.720;7.452;2023-05-10T05:32:35;15.15;;;7.65;;
30553;SDS011;17335;50.720;7.452;2023-05-10T05:35:02;14.48;;;7.45;;
30553;SDS011;17335;50.720;7.452;2023-05-10T05:37:28;19.00;;;8.10;;
30553;SDS011;17335;50.720;7.452;2023-05-10T05:39:55;16.00;;;8.65;;
30553;SDS011;17335;50.720;7.452;2023-05-10T05:42:22;14.90;;;6.97;;
30553;SDS011;17335;50.720;7.452;2023-05-10T05:44:48;16.75;;;8.30;;
30553;SDS011;17335;50.720;7.452;2023-05-10T05:47:15;16.25;;;7.40;;
30553;SDS011;17335;50.720;7.452;2023-05-10T05:49:42;19.70;;;9.57;;
30553;SDS011;17335;50.720;7.452;2023-05-10T05:52:08;16.88;;;9.30;;
30553;SDS011;17335;50.720;7.452;2023-05-10T05:54:35;15.52;;;8.25;;
30553;SDS011;17335;50.720;7.452;2023-05-10T05:57:02;19.70;;;10.05;;
30553;SDS011;17335;50.720;7.452;2023-05-10T05:59:28;21.27;;;9.20;;
30553;SDS011;17335;50.720;7.452;2023-05-10T06:01:55;19.77;;;10.05;;
30553;SDS011;17335;50.720;7.452;2023-05-10T06:04:22;20.20;;;9.55;;
30553;SDS011;17335;50.720;7.452;2023-05-10T06:06:49;20.08;;;9.73;;
30553;SDS011;17335;50.720;7.452;2023-05-10T06:09:15;21.63;;;10.00;;
30553;SDS011;17335;50.720;7.452;2023-05-10T06:11:42;20.50;;;9.70;;
30553;SDS011;17335;50.720;7.452;2023-05-10T06:14:09;18.73;;;9.25;;
30553;SDS011;17335;50.720;7.452;2023-05-10T06:16:36;18.08;;;8.85;;
30553;SDS011;17335;50.720;7.452;2023-05-10T06:19:03;20.50;;;9.35;;
30553;SDS011;17335;50.720;7.452;2023-05-10T06:21:29;19.58;;;9.38;;
30553;SDS011;17335;50.720;7.452;2023-05-10T06:23:56;16.33;;;8.50;;
30553;SDS011;17335;50.720;7.452;2023-05-10T06:26:23;19.20;;;9.73;;
30553;SDS011;17335;50.720;7.452;2023-05-10T06:28:49;18.52;;;9.35;;
30553;SDS011;17335;50.720;7.452;2023-05-10T06:31:16;19.40;;;8.65;;
30553;SDS011;17335;50.720;7.452;2023-05-10T06:33:43;17.42;;;8.27;;
30553;SDS011;17335;50.720;7.452;2023-05-10T06:36:09;21.67;;;7.85;;
30553;SDS011;17335;50.720;7.452;2023-05-10T06:38:36;15.02;;;7.47;;
30553;SDS011;17335;50.720;7.452;2023-05-10T06:41:02;16.98;;;7.60;;
30553;SDS011;17335;50.720;7.452;2023-05-10T06:43:29;15.25;;;7.43;;
30553;SDS011;17335;50.720;7.452;2023-05-10T06:45:56;13.27;;;6.95;;
30553;SDS011;17335;50.720;7.452;2023-05-10T06:48:23;15.27;;;6.95;;
30553;SDS011;17335;50.720;7.452;2023-05-10T06:50:49;13.25;;;7.75;;
30553;SDS011;17335;50.720;7.452;2023-05-10T06:53:15;15.63;;;7.40;;
30553;SDS011;17335;50.720;7.452;2023-05-10T06:55:42;17.40;;;7.35;;
30553;SDS011;17335;50.720;7.452;2023-05-10T06:58:09;13.65;;;7.53;;
30553;SDS011;17335;50.720;7.452;2023-05-10T07:00:35;12.35;;;6.38;;
30553;SDS011;17335;50.720;7.452;2023-05-10T07:03:06;13.75;;;7.40;;
30553;SDS011;17335;50.720;7.452;2023-05-10T07:05:33;14.55;;;6.78;;
30553;SDS011;17335;50.720;7.452;2023-05-10T07:08:00;17.40;;;6.82;;
30553;SDS011;17335;50.720;7.452;2023-05-10T07:10:27;10.80;;;6.07;;
30553;SDS011;17335;50.720;7.452;2023-05-10T07:12:54;10.55;;;6.28;;
30553;SDS011;17335;50.720;7.452;2023-05-10T07:15:21;11.27;;;6.38;;
30553;SDS011;17335;50.720;7.452;2023-05-10T07:17:48;10.52;;;5.28;;
30553;SDS011;17335;50.720;7.452;2023-05-10T07:20:15;9.73;;;5.07;;
30553;SDS011;17335;50.720;7.452;2023-05-10T07:22:41;14.10;;;6.45;;
30553;SDS011;17335;50.720;7.452;2023-05-10T07:25:08;11.18;;;5.90;;
30553;SDS011;17335;50.720;7.452;2023-05-10T07:27:34;11.55;;;6.05;;
30553;SDS011;17335;50.720;7.452;2023-05-10T07:30:01;13.27;;;6.00;;
30553;SDS011;17335;50.720;7.452;2023-05-10T07:32:28;11.02;;;5.68;;
30553;SDS011;17335;50.720;7.452;2023-05-10T07:34:55;11.23;;;6.32;;
30553;SDS011;17335;50.720;7.452;2023-05-10T07:37:21;10.85;;;5.75;;
30553;SDS011;17335;50.720;7.452;2023-05-10T07:39:48;9.20;;;5.22;;
30553;SDS011;17335;50.720;7.452;2023-05-10T07:42:14;11.65;;;5.95;;
30553;SDS011;17335;50.720;7.452;2023-05-10T07:44:40;10.00;;;5.13;;
30553;SDS011;17335;50.720;7.452;2023-05-10T07:47:08;9.57;;;4.82;;
30553;SDS011;17335;50.720;7.452;2023-05-10T07:49:35;10.90;;;5.30;;
30553;SDS011;17335;50.720;7.452;2023-05-10T07:52:02;9.40;;;5.28;;
30553;SDS011;17335;50.720;7.452;2023-05-10T07:54:30;9.35;;;4.72;;
30553;SDS011;17335;50.720;7.452;2023-05-10T07:56:56;8.02;;;4.65;;
30553;SDS011;17335;50.720;7.452;2023-05-10T07:59:23;8.10;;;4.07;;
30553;SDS011;17335;50.720;7.452;2023-05-10T08:01:50;7.55;;;3.40;;
30553;SDS011;17335;50.720;7.452;2023-05-10T08:04:16;8.57;;;3.80;;
30553;SDS011;17335;50.720;7.452;2023-05-10T08:06:43;7.80;;;4.05;;
30553;SDS011;17335;50.720;7.452;2023-05-10T08:09:10;6.90;;;3.50;;
30553;SDS011;17335;50.720;7.452;2023-05-10T08:11:37;10.60;;;3.40;;
30553;SDS011;17335;50.720;7.452;2023-05-10T08:14:03;5.18;;;3.20;;
30553;SDS011;17335;50.720;7.452;2023-05-10T08:16:30;6.00;;;3.42;;
30553;SDS011;17335;50.720;7.452;2023-05-10T08:18:56;6.78;;;3.30;;
30553;SDS011;17335;50.720;7.452;2023-05-10T08:21:24;5.32;;;2.85;;
30553;SDS011;17335;50.720;7.452;2023-05-10T08:23:50;6.30;;;2.75;;
30553;SDS011;17335;50.720;7.452;2023-05-10T08:26:17;4.88;;;2.85;;
30553;SDS011;17335;50.720;7.452;2023-05-10T08:28:43;4.95;;;2.47;;
30553;SDS011;17335;50.720;7.452;2023-05-10T08:31:10;5.85;;;2.47;;
30553;SDS011;17335;50.720;7.452;2023-05-10T08:33:37;4.57;;;2.30;;
30553;SDS011;17335;50.720;7.452;2023-05-10T08:36:04;5.95;;;2.88;;
30553;SDS011;17335;50.720;7.452;2023-05-10T08:38:30;6.20;;;2.60;;
30553;SDS011;17335;50.720;7.452;2023-05-10T08:40:57;5.68;;;2.70;;
30553;SDS011;17335;50.720;7.452;2023-05-10T08:43:28;7.85;;;2.33;;
30553;SDS011;17335;50.720;7.452;2023-05-10T08:45:56;5.53;;;2.40;;
30553;SDS011;17335;50.720;7.452;2023-05-10T08:48:25;5.18;;;2.60;;
30553;SDS011;17335;50.720;7.452;2023-05-10T08:50:54;5.18;;;2.75;;
30553;SDS011;17335;50.720;7.452;2023-05-10T08:53:25;5.63;;;2.63;;
30553;SDS011;17335;50.720;7.452;2023-05-10T08:55:54;4.95;;;2.78;;
30553;SDS011;17335;50.720;7.452;2023-05-10T08:58:22;5.35;;;2.58;;
30553;SDS011;17335;50.720;7.452;2023-05-10T09:00:48;6.57;;;2.75;;
30553;SDS011;17335;50.720;7.452;2023-05-10T09:03:17;5.10;;;2.70;;
30553;SDS011;17335;50.720;7.452;2023-05-10T09:05:44;8.15;;;2.80;;
30553;SDS011;17335;50.720;7.452;2023-05-10T09:08:11;3.85;;;2.20;;
30553;SDS011;17335;50.720;7.452;2023-05-10T09:10:39;4.35;;;2.28;;
30553;SDS011;17335;50.720;7.452;2023-05-10T09:13:06;5.53;;;2.42;;
30553;SDS011;17335;50.720;7.452;2023-05-10T09:15:35;5.47;;;2.42;;
30553;SDS011;17335;50.720;7.452;2023-05-10T09:18:01;3.03;;;1.92;;
30553;SDS011;17335;50.720;7.452;2023-05-10T09:20:28;4.68;;;2.30;;
30553;SDS011;17335;50.720;7.452;2023-05-10T09:22:55;4.55;;;2.33;;
30553;SDS011;17335;50.720;7.452;2023-05-10T09:25:21;4.32;;;2.25;;
30553;SDS011;17335;50.720;7.452;2023-05-10T09:27:48;4.28;;;2.63;;
30553;SDS011;17335;50.720;7.452;2023-05-10T09:30:25;3.60;;;1.95;;
30553;SDS011;17335;50.720;7.452;2023-05-10T09:32:56;4.65;;;2.65;;
30553;SDS011;17335;50.720;7.452;2023-05-10T09:35:25;3.70;;;2.20;;
30553;SDS011;17335;50.720;7.452;2023-05-10T09:37:56;6.10;;;2.60;;
30553;SDS011;17335;50.720;7.452;2023-05-10T09:40:24;3.53;;;1.85;;
30553;SDS011;17335;50.720;7.452;2023-05-10T09:42:54;4.93;;;1.90;;
30553;SDS011;17335;50.720;7.452;2023-05-10T09:45:25;4.15;;;1.83;;
30553;SDS011;17335;50.720;7.452;2023-05-10T09:47:53;3.45;;;1.70;;
30553;SDS011;17335;50.720;7.452;2023-05-10T09:50:20;4.28;;;1.90;;
30553;SDS011;17335;50.720;7.452;2023-05-10T09:52:51;4.57;;;2.30;;
30553;SDS011;17335;50.720;7.452;2023-05-10T09:55:19;3.85;;;2.08;;
30553;SDS011;17335;50.720;7.452;2023-05-10T09:57:48;3.67;;;2.28;;
30553;SDS011;17335;50.720;7.452;2023-05-10T10:00:16;3.22;;;1.90;;
30553;SDS011;17335;50.720;7.452;2023-05-10T10:02:47;3.17;;;1.65;;
30553;SDS011;17335;50.720;7.452;2023-05-10T10:05:20;2.53;;;1.35;;
30553;SDS011;17335;50.720;7.452;2023-05-10T10:07:47;2.72;;;1.30;;
30553;SDS011;17335;50.720;7.452;2023-05-10T10:10:15;1.90;;;1.00;;
30553;SDS011;17335;50.720;7.452;2023-05-10T10:12:43;2.35;;;1.13;;
30553;SDS011;17335;50.720;7.452;2023-05-10T10:15:10;3.25;;;1.20;;
30553;SDS011;17335;50.720;7.452;2023-05-10T10:17:37;2.30;;;1.23;;
30553;SDS011;17335;50.720;7.452;2023-05-10T10:20:05;6.85;;;1.30;;
30553;SDS011;17335;50.720;7.452;2023-05-10T10:22:37;3.42;;;1.30;;
30553;SDS011;17335;50.720;7.452;2023-05-10T10:25:03;4.65;;;1.23;;
30553;SDS011;17335;50.720;7.452;2023-05-10T10:27:37;2.35;;;1.38;;
30553;SDS011;17335;50.720;7.452;2023-05-10T10:30:41;2.70;;;1.50;;
30553;SDS011;17335;50.720;7.452;2023-05-10T10:35:55;3.13;;;1.63;;
30553;SDS011;17335;50.720;7.452;2023-05-10T10:38:24;2.58;;;1.50;;
30553;SDS011;17335;50.720;7.452;2023-05-10T10:41:10;2.25;;;1.55;;
30553;SDS011;17335;50.720;7.452;2023-05-10T10:52:24;3.20;;;1.65;;
30553;SDS011;17335;50.720;7.452;2023-05-10T10:54:58;2.90;;;1.65;;
30553;SDS011;17335;50.720;7.452;2023-05-10T10:57:28;3.13;;;1.70;;
30553;SDS011;17335;50.720;7.452;2023-05-10T11:00:17;2.67;;;1.48;;
30553;SDS011;17335;50.720;7.452;2023-05-10T11:02:45;2.08;;;1.45;;
30553;SDS011;17335;50.720;7.452;2023-05-10T11:07:54;2.90;;;1.63;;
30553;SDS011;17335;50.720;7.452;2023-05-10T11:10:25;2.42;;;1.50;;
30553;SDS011;17335;50.720;7.452;2023-05-10T11:15:30;2.40;;;1.70;;
30553;SDS011;17335;50.720;7.452;2023-05-10T11:17:58;3.95;;;2.17;;
30553;SDS011;17335;50.720;7.452;2023-05-10T11:20:28;4.63;;;2.63;;
30553;SDS011;17335;50.720;7.452;2023-05-10T11:23:12;6.75;;;2.95;;
30553;SDS011;17335;50.720;7.452;2023-05-10T11:25:42;4.75;;;2.75;;
30553;SDS011;17335;50.720;7.452;2023-05-10T11:28:12;7.30;;;3.17;;
30553;SDS011;17335;50.720;7.452;2023-05-10T11:30:39;7.40;;;3.10;;
30553;SDS011;17335;50.720;7.452;2023-05-10T11:33:08;5.65;;;2.90;;
30553;SDS011;17335;50.720;7.452;2023-05-10T11:35:38;7.18;;;3.47;;
30553;SDS011;17335;50.720;7.452;2023-05-10T11:38:12;6.07;;;2.83;;
30553;SDS011;17335;50.720;7.452;2023-05-10T11:40:40;8.60;;;3.83;;
30553;SDS011;17335;50.720;7.452;2023-05-10T11:43:08;9.43;;;4.40;;
30553;SDS011;17335;50.720;7.452;2023-05-10T11:45:35;8.68;;;3.92;;
30553;SDS011;17335;50.720;7.452;2023-05-10T11:48:02;7.60;;;4.15;;
30553;SDS011;17335;50.720;7.452;2023-05-10T11:50:28;11.07;;;4.80;;
30553;SDS011;17335;50.720;7.452;2023-05-10T11:52:56;11.38;;;4.88;;
30553;SDS011;17335;50.720;7.452;2023-05-10T11:55:23;11.70;;;5.47;;
30553;SDS011;17335;50.720;7.452;2023-05-10T11:57:53;12.98;;;5.03;;
30553;SDS011;17335;50.720;7.452;2023-05-10T12:00:20;9.65;;;5.20;;
30553;SDS011;17335;50.720;7.452;2023-05-10T12:02:48;10.48;;;4.78;;
30553;SDS011;17335;50.720;7.452;2023-05-10T12:05:15;10.75;;;5.47;;
30553;SDS011;17335;50.720;7.452;2023-05-10T12:07:42;10.63;;;5.45;;
30553;SDS011;17335;50.720;7.452;2023-05-10T12:10:12;12.63;;;5.25;;
30553;SDS011;17335;50.720;7.452;2023-05-10T12:12:44;11.82;;;5.60;;
30553;SDS011;17335;50.720;7.452;2023-05-10T12:15:18;10.88;;;4.97;;
30553;SDS011;17335;50.720;7.452;2023-05-10T12:17:46;9.30;;;4.70;;
30553;SDS011;17335;50.720;7.452;2023-05-10T12:22:43;12.73;;;6.00;;
30553;SDS011;17335;50.720;7.452;2023-05-10T12:25:12;10.82;;;4.88;;
30553;SDS011;17335;50.720;7.452;2023-05-10T12:27:38;9.70;;;4.53;;
30553;SDS011;17335;50.720;7.452;2023-05-10T12:30:05;8.40;;;3.97;;
30553;SDS011;17335;50.720;7.452;2023-05-10T12:32:43;7.38;;;3.92;;
30553;SDS011;17335;50.720;7.452;2023-05-10T12:35:10;10.10;;;3.92;;
30553;SDS011;17335;50.720;7.452;2023-05-10T12:37:36;6.47;;;3.70;;
30553;SDS011;17335;50.720;7.452;2023-05-10T12:40:05;8.23;;;3.40;;
30553;SDS011;17335;50.720;7.452;2023-05-10T12:42:35;9.80;;;4.80;;
30553;SDS011;17335;50.720;7.452;2023-05-10T12:45:04;12.50;;;6.57;;
30553;SDS011;17335;50.720;7.452;2023-05-10T12:47:33;16.15;;;6.70;;
30553;SDS011;17335;50.720;7.452;2023-05-10T12:50:01;15.45;;;6.55;;
30553;SDS011;17335;50.720;7.452;2023-05-10T12:52:28;12.75;;;7.00;;
30553;SDS011;17335;50.720;7.452;2023-05-10T12:54:56;11.20;;;5.22;;
30553;SDS011;17335;50.720;7.452;2023-05-10T12:57:22;10.48;;;5.75;;
30553;SDS011;17335;50.720;7.452;2023-05-10T12:59:49;13.00;;;6.70;;
30553;SDS011;17335;50.720;7.452;2023-05-10T13:02:15;17.90;;;8.57;;
30553;SDS011;17335;50.720;7.452;2023-05-10T13:04:44;15.73;;;7.72;;
30553;SDS011;17335;50.720;7.452;2023-05-10T13:07:14;18.83;;;8.20;;
30553;SDS011;17335;50.720;7.452;2023-05-10T13:09:41;12.70;;;6.93;;
30553;SDS011;17335;50.720;7.452;2023-05-10T13:12:07;13.25;;;6.10;;
30553;SDS011;17335;50.720;7.452;2023-05-10T13:14:35;9.63;;;5.88;;
30553;SDS011;17335;50.720;7.452;2023-05-10T13:17:02;11.75;;;6.45;;
30553;SDS011;17335;50.720;7.452;2023-05-10T13:19:29;13.40;;;7.63;;
30553;SDS011;17335;50.720;7.452;2023-05-10T13:21:55;12.80;;;6.45;;
30553;SDS011;17335;50.720;7.452;2023-05-10T13:24:22;14.10;;;6.75;;
30553;SDS011;17335;50.720;7.452;2023-05-10T13:26:48;13.60;;;6.88;;
30553;SDS011;17335;50.720;7.452;2023-05-10T13:29:15;11.85;;;6.50;;
30553;SDS011;17335;50.720;7.452;2023-05-10T13:31:44;10.85;;;6.20;;
30553;SDS011;17335;50.720;7.452;2023-05-10T13:34:11;10.88;;;5.57;;
30553;SDS011;17335;50.720;7.452;2023-05-10T13:36:37;11.93;;;6.72;;
30553;SDS011;17335;50.720;7.452;2023-05-10T13:39:04;11.90;;;7.20;;
30553;SDS011;17335;50.720;7.452;2023-05-10T13:41:31;12.65;;;5.80;;
30553;SDS011;17335;50.720;7.452;2023-05-10T13:43:58;12.45;;;5.60;;
30553;SDS011;17335;50.720;7.452;2023-05-10T13:46:24;10.25;;;5.68;;
30553;SDS011;17335;50.720;7.452;2023-05-10T13:48:51;11.02;;;5.25;;
30553;SDS011;17335;50.720;7.452;2023-05-10T13:51:18;12.20;;;5.15;;
30553;SDS011;17335;50.720;7.452;2023-05-10T13:53:44;9.23;;;5.05;;
30553;SDS011;17335;50.720;7.452;2023-05-10T13:56:13;9.68;;;4.78;;
30553;SDS011;17335;50.720;7.452;2023-05-10T13:58:40;8.50;;;4.40;;
30553;SDS011;17335;50.720;7.452;2023-05-10T14:01:07;10.23;;;4.53;;
30553;SDS011;17335;50.720;7.452;2023-05-10T14:03:33;10.43;;;5.00;;
30553;SDS011;17335;50.720;7.452;2023-05-10T14:06:00;8.52;;;4.85;;
30553;SDS011;17335;50.720;7.452;2023-05-10T14:08:27;9.00;;;4.82;;
30553;SDS011;17335;50.720;7.452;2023-05-10T14:10:53;9.15;;;4.32;;
30553;SDS011;17335;50.720;7.452;2023-05-10T14:13:22;9.55;;;4.32;;
30553;SDS011;17335;50.720;7.452;2023-05-10T14:15:49;11.25;;;4.50;;
30553;SDS011;17335;50.720;7.452;2023-05-10T14:18:16;6.50;;;3.65;;
30553;SDS011;17335;50.720;7.452;2023-05-10T14:20:42;5.82;;;3.50;;
30553;SDS011;17335;50.720;7.452;2023-05-10T14:23:09;6.05;;;3.53;;
30553;SDS011;17335;50.720;7.452;2023-05-10T14:25:37;6.90;;;3.95;;
30553;SDS011;17335;50.720;7.452;2023-05-10T14:28:06;5.43;;;3.35;;
30553;SDS011;17335;50.720;7.452;2023-05-10T14:30:32;7.40;;;3.38;;
30553;SDS011;17335;50.720;7.452;2023-05-10T14:33:01;4.22;;;2.42;;
30553;SDS011;17335;50.720;7.452;2023-05-10T14:35:28;4.63;;;2.78;;
30553;SDS011;17335;50.720;7.452;2023-05-10T14:37:57;10.07;;;4.60;;
30553;SDS011;17335;50.720;7.452;2023-05-10T14:40:24;40.17;;;19.95;;
30553;SDS011;17335;50.720;7.452;2023-05-10T14:42:50;14.23;;;7.30;;
30553;SDS011;17335;50.720;7.452;2023-05-10T14:45:19;6.45;;;4.00;;
30553;SDS011;17335;50.720;7.452;2023-05-10T14:47:46;5.63;;;3.05;;
30553;SDS011;17335;50.720;7.452;2023-05-10T14:50:13;5.28;;;3.22;;
30553;SDS011;17335;50.720;7.452;2023-05-10T14:53:00;7.55;;;4.72;;
30553;SDS011;17335;50.720;7.452;2023-05-10T14:55:26;7.43;;;3.97;;
30553;SDS011;17335;50.720;7.452;2023-05-10T14:57:53;6.55;;;3.35;;
30553;SDS011;17335;50.720;7.452;2023-05-10T15:00:20;5.68;;;3.38;;
30553;SDS011;17335;50.720;7.452;2023-05-10T15:02:47;5.20;;;3.15;;
30553;SDS011;17335;50.720;7.452;2023-05-10T15:05:17;5.95;;;2.97;;
30553;SDS011;17335;50.720;7.452;2023-05-10T15:07:44;5.35;;;2.55;;
30553;SDS011;17335;50.720;7.452;2023-05-10T15:10:11;7.47;;;3.42;;
30553;SDS011;17335;50.720;7.452;2023-05-10T15:12:37;7.30;;;2.60;;
30553;SDS011;17335;50.720;7.452;2023-05-10T15:15:04;4.30;;;2.72;;
30553;SDS011;17335;50.720;7.452;2023-05-10T15:17:31;4.88;;;2.75;;
30553;SDS011;17335;50.720;7.452;2023-05-10T15:19:58;5.65;;;2.88;;
30553;SDS011;17335;50.720;7.452;2023-05-10T15:22:25;4.53;;;2.85;;
30553;SDS011;17335;50.720;7.452;2023-05-10T15:24:54;7.05;;;3.30;;
30553;SDS011;17335;50.720;7.452;2023-05-10T15:27:21;5.20;;;3.08;;
30553;SDS011;17335;50.720;7.452;2023-05-10T15:29:48;4.50;;;2.70;;
30553;SDS011;17335;50.720;7.452;2023-05-10T15:32:14;4.35;;;2.55;;